createdAt,value
2022-12-08T00:00:53.653Z,1.47
2022-12-08T00:03:23.966Z,1.47
2022-12-08T00:06:09.201Z,1.50
2022-12-08T00:08:51.629Z,1.52
2022-12-08T00:11:22.251Z,1.48
2022-12-08T00:13:52.328Z,1.48
2022-12-08T00:16:22.474Z,1.47
2022-12-08T00:18:52.697Z,1.48
2022-12-08T00:21:25.399Z,1.51
2022-12-08T00:23:57.940Z,1.50
2022-12-08T00:26:27.943Z,1.48
2022-12-08T00:28:58.075Z,1.47
2022-12-08T00:31:28.189Z,1.47
2022-12-08T00:33:58.395Z,1.47
2022-12-08T00:36:31.580Z,1.48
2022-12-08T00:39:04.310Z,1.46
2022-12-08T00:41:46.808Z,1.42
2022-12-08T00:44:19.179Z,1.39
2022-12-08T00:46:50.144Z,1.36
2022-12-08T00:49:20.739Z,1.34
2022-12-08T00:51:53.493Z,1.34
2022-12-08T00:54:26.305Z,1.27
2022-12-08T00:56:56.453Z,1.31
2022-12-08T00:59:27.008Z,1.32
2022-12-08T01:01:57.081Z,1.33
2022-12-08T01:04:27.301Z,1.32
2022-12-08T01:06:59.971Z,1.31
2022-12-08T01:09:30.005Z,1.31
2022-12-08T01:12:00.088Z,1.29
2022-12-08T01:14:30.212Z,1.20
2022-12-08T01:17:00.444Z,1.20
2022-12-08T01:19:31.107Z,1.18
2022-12-08T01:22:03.830Z,1.08
2022-12-08T01:24:36.000Z,1.03
2022-12-08T01:27:06.055Z,0.96
2022-12-08T01:29:36.275Z,0.92
2022-12-08T01:32:06.447Z,0.90
2022-12-08T01:34:36.458Z,0.84
2022-12-08T01:37:09.076Z,0.80
2022-12-08T01:39:40.983Z,0.82
2022-12-08T01:42:22.237Z,0.72
2022-12-08T01:45:17.031Z,0.71
2022-12-08T01:47:51.269Z,0.68
2022-12-08T01:50:23.292Z,0.72
2022-12-08T01:53:00.309Z,0.70
2022-12-08T01:55:36.440Z,0.67
2022-12-08T01:58:10.065Z,0.60
2022-12-08T02:00:40.080Z,0.62
2022-12-08T02:03:16.267Z,0.61
2022-12-08T02:05:47.595Z,0.55
2022-12-08T02:08:20.975Z,0.51
2022-12-08T02:10:54.889Z,0.38
2022-12-08T02:13:27.399Z,0.46
2022-12-08T02:16:05.720Z,0.49
2022-12-08T02:19:28.548Z,0.41
2022-12-08T02:21:54.259Z,0.34
2022-12-08T02:24:34.344Z,0.35
2022-12-08T02:27:28.975Z,0.31
2022-12-08T02:30:13.606Z,0.28
2022-12-08T02:33:12.561Z,0.21
2022-12-08T02:35:55.299Z,0.13
2022-12-08T02:38:40.547Z,0.16
2022-12-08T02:41:21.866Z,0.10
2022-12-08T02:43:59.614Z,0.09
2022-12-08T02:46:34.290Z,0.10
2022-12-08T02:49:05.387Z,0.04
2022-12-08T02:51:40.156Z,0.09
2022-12-08T02:54:10.367Z,0.12
2022-12-08T02:56:57.969Z,0.17
2022-12-08T02:59:50.874Z,0.24
2022-12-08T03:02:33.240Z,0.30
2022-12-08T03:05:10.392Z,0.39
2022-12-08T03:07:50.665Z,0.43
2022-12-08T03:10:26.046Z,0.46
2022-12-08T03:13:01.921Z,0.54
2022-12-08T03:15:34.813Z,0.53
2022-12-08T03:18:08.441Z,0.67
2022-12-08T03:20:40.049Z,0.72
2022-12-08T03:23:16.156Z,0.77
2022-12-08T03:25:51.640Z,0.79
2022-12-08T03:28:21.847Z,0.78
2022-12-08T03:30:58.445Z,0.78
2022-12-08T03:33:33.490Z,0.74
2022-12-08T03:36:07.612Z,0.71
2022-12-08T03:38:44.763Z,0.72
2022-12-08T03:41:21.324Z,0.75
2022-12-08T03:43:52.786Z,0.70
2022-12-08T03:48:55.334Z,0.70
2022-12-08T03:51:27.395Z,0.67
2022-12-08T03:54:00.994Z,0.65
2022-12-08T03:56:32.338Z,0.64
2022-12-08T03:59:02.786Z,0.62
2022-12-08T04:01:32.973Z,0.59
2022-12-08T04:04:03.143Z,0.56
2022-12-08T04:06:33.440Z,0.56
2022-12-08T04:09:06.130Z,0.53
2022-12-08T04:11:36.297Z,0.50
2022-12-08T04:14:06.523Z,0.52
2022-12-08T04:16:36.660Z,0.51
2022-12-08T04:19:06.935Z,0.51
2022-12-08T04:21:37.447Z,0.51
2022-12-08T04:24:10.728Z,0.54
2022-12-08T04:26:40.781Z,0.57
2022-12-08T04:29:10.878Z,0.59
2022-12-08T04:31:41.090Z,0.60
2022-12-08T04:34:11.931Z,0.61
2022-12-08T04:36:42.099Z,0.67
2022-12-08T04:39:14.764Z,0.74
2022-12-08T04:41:44.861Z,0.74
2022-12-08T04:44:15.035Z,0.79
2022-12-08T04:46:45.070Z,0.81
2022-12-08T04:49:15.173Z,0.89
2022-12-08T04:51:45.234Z,0.92
2022-12-08T04:54:17.853Z,0.99
2022-12-08T04:56:48.032Z,1.04
2022-12-08T04:59:18.116Z,1.07
2022-12-08T05:01:48.266Z,1.11
2022-12-08T05:04:18.454Z,1.13
2022-12-08T05:06:48.474Z,1.20
2022-12-08T05:09:21.167Z,1.25
2022-12-08T05:11:51.332Z,1.24
2022-12-08T05:14:22.309Z,1.28
2022-12-08T05:16:52.446Z,1.33
2022-12-08T05:19:24.820Z,1.38
2022-12-08T05:21:55.002Z,1.35
2022-12-08T05:24:27.964Z,1.42
2022-12-08T05:26:58.053Z,1.39
2022-12-08T05:29:28.613Z,1.43
2022-12-08T05:31:58.853Z,1.47
2022-12-08T05:34:29.227Z,1.52
2022-12-08T05:36:59.264Z,1.54
2022-12-08T05:39:32.108Z,1.58
2022-12-08T05:42:02.501Z,1.59
2022-12-08T05:44:32.720Z,1.60
2022-12-08T05:47:03.046Z,1.63
2022-12-08T05:49:33.220Z,1.63
2022-12-08T05:52:03.342Z,1.63
2022-12-08T05:54:35.977Z,1.65
2022-12-08T05:57:06.287Z,1.66
2022-12-08T05:59:37.203Z,1.68
2022-12-08T06:02:07.377Z,1.70
2022-12-08T06:04:37.479Z,1.71
2022-12-08T06:07:10.672Z,1.58
2022-12-08T06:09:47.496Z,1.73
2022-12-08T06:12:17.638Z,1.73
2022-12-08T06:14:48.811Z,1.72
2022-12-08T06:17:18.964Z,1.69
2022-12-08T06:19:49.040Z,1.68
2022-12-08T06:22:19.039Z,1.70
2022-12-08T06:24:51.801Z,1.73
2022-12-08T06:27:21.896Z,1.75
2022-12-08T06:29:51.992Z,1.78
2022-12-08T06:32:27.294Z,1.82
2022-12-08T06:34:57.724Z,1.87
2022-12-08T06:37:27.960Z,1.97
2022-12-08T06:40:01.259Z,2.03
2022-12-08T06:42:47.255Z,2.08
2022-12-08T06:45:19.424Z,2.13
2022-12-08T06:47:49.461Z,2.19
2022-12-08T06:50:19.524Z,2.23
2022-12-08T06:53:00.801Z,2.23
2022-12-08T06:58:27.575Z,2.24
2022-12-08T07:00:57.773Z,2.21
2022-12-08T07:03:27.876Z,2.24
2022-12-08T07:06:03.780Z,2.28
2022-12-08T07:08:35.159Z,2.32
2022-12-08T07:11:18.027Z,2.40
2022-12-08T07:13:49.465Z,2.47
2022-12-08T07:16:19.567Z,2.50
2022-12-08T07:18:49.785Z,2.51
2022-12-08T07:21:20.764Z,2.57
2022-12-08T07:23:57.330Z,2.56
2022-12-08T07:26:30.503Z,2.61
2022-12-08T07:29:00.713Z,2.57
2022-12-08T07:31:31.408Z,2.53
2022-12-08T07:34:01.931Z,2.62
2022-12-08T07:36:32.708Z,2.65
2022-12-08T07:39:02.884Z,2.73
2022-12-08T07:41:36.322Z,2.74
2022-12-08T07:44:07.148Z,2.72
2022-12-08T07:46:37.228Z,2.82
2022-12-08T07:49:07.452Z,2.90
2022-12-08T07:51:37.562Z,2.94
2022-12-08T07:54:07.825Z,2.98
2022-12-08T07:56:40.459Z,2.95
2022-12-08T07:59:10.585Z,2.92
2022-12-08T08:01:41.381Z,2.96
2022-12-08T08:04:14.515Z,2.96
2022-12-08T08:06:44.651Z,3.01
2022-12-08T08:09:15.389Z,3.03
2022-12-08T08:12:01.279Z,3.02
2022-12-08T08:14:38.583Z,2.99
2022-12-08T08:17:08.808Z,2.96
2022-12-08T08:19:39.193Z,2.99
2022-12-08T08:22:09.343Z,3.11
2022-12-08T08:24:44.638Z,3.20
2022-12-08T08:27:17.865Z,3.08
2022-12-08T08:29:48.207Z,3.11
2022-12-08T08:32:18.291Z,3.23
2022-12-08T08:34:48.397Z,3.27
2022-12-08T08:37:18.564Z,3.21
2022-12-08T08:39:48.858Z,3.11
2022-12-08T08:42:21.520Z,3.13
2022-12-08T08:44:52.927Z,3.15
2022-12-08T08:47:23.080Z,3.35
2022-12-08T08:49:53.224Z,3.50
2022-12-08T08:52:23.290Z,3.56
2022-12-08T08:54:53.433Z,3.64
2022-12-08T08:57:26.384Z,3.65
2022-12-08T08:59:56.787Z,3.73
2022-12-08T09:02:27.025Z,3.85
2022-12-08T09:04:57.214Z,3.91
2022-12-08T09:07:27.443Z,3.92
2022-12-08T09:10:01.849Z,3.95
2022-12-08T09:12:34.900Z,4.10
2022-12-08T09:15:04.928Z,4.27
2022-12-08T09:17:35.067Z,4.31
2022-12-08T09:20:05.595Z,4.48
2022-12-08T09:22:35.927Z,4.64
2022-12-08T09:25:06.452Z,4.69
2022-12-08T09:27:39.097Z,4.86
2022-12-08T09:30:11.022Z,5.02
2022-12-08T09:32:41.138Z,5.20
2022-12-08T09:35:11.755Z,5.28
2022-12-08T09:37:41.768Z,5.37
2022-12-08T09:40:18.414Z,5.34
2022-12-08T09:42:55.740Z,5.34
2022-12-08T09:45:29.543Z,5.29
2022-12-08T09:48:03.794Z,5.32
2022-12-08T09:50:38.060Z,5.40
2022-12-08T09:53:15.327Z,5.46
2022-12-08T09:55:49.720Z,5.42
2022-12-08T09:58:30.804Z,5.43
2022-12-08T10:01:02.157Z,5.28
2022-12-08T10:03:33.565Z,5.19
2022-12-08T10:06:10.722Z,5.27
2022-12-08T10:08:49.225Z,5.38
2022-12-08T10:11:27.244Z,5.45
2022-12-08T10:14:06.651Z,5.65
2022-12-08T10:16:42.189Z,5.62
2022-12-08T10:19:17.623Z,5.82
2022-12-08T10:21:48.406Z,5.84
2022-12-08T10:24:28.976Z,5.99
2022-12-08T10:26:59.662Z,6.20
2022-12-08T10:29:32.572Z,6.42
2022-12-08T10:32:03.318Z,6.62
2022-12-08T10:34:33.406Z,6.63
2022-12-08T10:37:03.492Z,6.76
2022-12-08T10:39:39.276Z,6.79
2022-12-08T10:42:22.199Z,6.81
2022-12-08T10:45:25.089Z,6.81
2022-12-08T10:48:02.789Z,6.64
2022-12-08T10:50:37.936Z,6.82
2022-12-08T10:53:16.229Z,6.89
2022-12-08T10:55:48.619Z,7.01
2022-12-08T10:58:30.438Z,7.11
2022-12-08T11:01:07.796Z,7.14
2022-12-08T11:03:40.494Z,6.86
2022-12-08T11:06:17.799Z,7.07
2022-12-08T11:08:52.085Z,7.41
2022-12-08T11:11:29.224Z,7.78
2022-12-08T11:13:59.659Z,7.83
2022-12-08T11:16:32.491Z,7.81
2022-12-08T11:19:08.362Z,7.74
2022-12-08T11:21:40.213Z,7.72
2022-12-08T11:24:25.368Z,7.81
2022-12-08T11:26:57.977Z,7.77
2022-12-08T11:29:29.112Z,7.77
2022-12-08T11:32:05.787Z,7.81
2022-12-08T11:34:41.771Z,7.77
2022-12-08T11:37:18.993Z,7.47
2022-12-08T11:39:53.263Z,7.84
2022-12-08T11:42:29.154Z,7.90
2022-12-08T11:45:02.211Z,7.93
2022-12-08T11:47:40.013Z,7.88
2022-12-08T11:50:22.989Z,7.95
2022-12-08T11:52:54.384Z,7.78
2022-12-08T11:55:37.460Z,7.87
2022-12-08T11:58:19.667Z,7.66
2022-12-08T12:00:49.904Z,7.72
2022-12-08T12:03:31.191Z,7.54
2022-12-08T12:09:21.289Z,7.62
2022-12-08T12:12:16.929Z,7.78
2022-12-08T12:15:16.020Z,8.12
2022-12-08T12:17:50.842Z,8.26
2022-12-08T12:20:28.910Z,8.30
2022-12-08T12:23:06.159Z,8.29
2022-12-08T12:25:38.649Z,8.25
2022-12-08T12:28:11.779Z,8.13
2022-12-08T12:31:00.794Z,8.07
2022-12-08T12:33:33.370Z,8.00
2022-12-08T12:36:10.404Z,7.98
2022-12-08T12:38:55.812Z,7.88
2022-12-08T12:41:28.882Z,7.91
2022-12-08T12:44:37.843Z,7.90
2022-12-08T12:47:13.149Z,7.68
2022-12-08T12:50:17.772Z,7.67
2022-12-08T12:52:54.593Z,7.71
2022-12-08T12:55:31.196Z,7.65
2022-12-08T12:58:01.896Z,7.55
2022-12-08T13:00:31.988Z,7.56
2022-12-08T13:03:02.380Z,7.48
2022-12-08T13:05:37.183Z,7.36
2022-12-08T13:08:19.576Z,7.53
2022-12-08T13:11:00.130Z,7.61
2022-12-08T13:13:31.288Z,7.62
2022-12-08T13:16:17.104Z,7.56
2022-12-08T13:18:52.406Z,7.57
2022-12-08T13:21:25.327Z,7.47
2022-12-08T13:24:17.886Z,7.26
2022-12-08T13:26:49.500Z,7.26
2022-12-08T13:29:23.139Z,7.19
2022-12-08T13:31:55.723Z,7.19
2022-12-08T13:34:34.219Z,7.10
2022-12-08T13:37:26.767Z,6.94
2022-12-08T13:40:04.038Z,7.01
2022-12-08T13:42:38.831Z,6.85
2022-12-08T13:45:33.455Z,6.75
2022-12-08T13:48:51.193Z,6.77
2022-12-08T13:53:22.519Z,6.74
2022-12-08T13:57:11.979Z,6.70
2022-12-08T13:59:47.500Z,6.64
2022-12-08T14:02:23.459Z,6.66
2022-12-08T14:05:34.567Z,6.72
2022-12-08T14:07:48.690Z,6.72
2022-12-08T14:10:23.419Z,6.67
2022-12-08T14:13:01.097Z,6.57
2022-12-08T14:15:38.239Z,6.54
2022-12-08T14:18:12.417Z,6.50
2022-12-08T14:21:19.047Z,6.42
2022-12-08T14:23:32.640Z,6.31
2022-12-08T14:26:02.727Z,6.20
2022-12-08T14:28:43.044Z,6.26
2022-12-08T14:31:15.061Z,6.08
2022-12-08T14:33:45.417Z,6.10
2022-12-08T14:36:16.880Z,6.07
2022-12-08T14:38:48.374Z,5.83
2022-12-08T14:41:18.476Z,5.96
2022-12-08T14:44:01.305Z,5.92
2022-12-08T14:46:31.966Z,5.92
2022-12-08T14:49:02.070Z,6.00
2022-12-08T14:51:34.754Z,5.89
2022-12-08T14:54:09.517Z,5.75
2022-12-08T14:56:42.175Z,5.76
2022-12-08T14:59:21.562Z,5.61
2022-12-08T15:01:53.939Z,5.97
2022-12-08T15:04:28.757Z,6.06
2022-12-08T15:07:05.546Z,6.04
2022-12-08T15:09:39.901Z,5.97
2022-12-08T15:12:27.110Z,5.65
2022-12-08T15:15:02.462Z,5.71
2022-12-08T15:17:37.227Z,5.71
2022-12-08T15:20:09.741Z,5.77
2022-12-08T15:22:39.870Z,5.55
2022-12-08T15:25:15.556Z,5.81
2022-12-08T15:27:50.711Z,5.86
2022-12-08T15:30:23.985Z,5.81
2022-12-08T15:32:56.086Z,5.45
2022-12-08T15:35:26.327Z,5.67
2022-12-08T15:37:56.732Z,5.75
2022-12-08T15:40:27.337Z,5.77
2022-12-08T15:42:57.441Z,5.77
2022-12-08T15:45:34.695Z,5.78
2022-12-08T15:48:04.987Z,5.74
2022-12-08T15:50:35.045Z,5.65
2022-12-08T15:53:05.285Z,5.70
2022-12-08T15:55:38.755Z,5.74
2022-12-08T16:01:02.768Z,5.54
2022-12-08T16:04:19.803Z,5.74
2022-12-08T16:07:12.938Z,5.85
2022-12-08T16:09:22.289Z,5.91
2022-12-08T16:12:07.303Z,5.89
2022-12-08T16:17:31.694Z,5.99
2022-12-08T16:20:04.101Z,5.92
2022-12-08T16:25:36.417Z,6.06
2022-12-08T16:28:52.241Z,6.05
2022-12-08T16:31:13.069Z,6.03
2022-12-08T16:33:46.522Z,6.01
2022-12-08T16:36:16.712Z,6.08
2022-12-08T16:38:46.774Z,6.07
2022-12-08T16:41:29.834Z,6.08
2022-12-08T16:44:04.138Z,6.04
2022-12-08T16:46:34.955Z,6.02
2022-12-08T16:49:10.710Z,5.96
2022-12-08T16:51:40.805Z,5.92
2022-12-08T16:54:10.823Z,5.88
2022-12-08T16:56:41.026Z,5.85
2022-12-08T16:59:11.113Z,5.81
2022-12-08T17:01:41.745Z,5.74
2022-12-08T17:04:30.989Z,5.69
2022-12-08T17:07:02.339Z,5.79
2022-12-08T17:09:34.404Z,5.85
2022-12-08T17:12:04.573Z,5.50
2022-12-08T17:14:37.388Z,5.38
2022-12-08T17:17:07.474Z,5.57
2022-12-08T17:19:40.599Z,5.72
2022-12-08T17:22:10.638Z,5.70
2022-12-08T17:24:40.864Z,5.77
2022-12-08T17:27:11.495Z,5.70
2022-12-08T17:29:41.652Z,5.64
2022-12-08T17:32:11.942Z,5.56
2022-12-08T17:34:44.884Z,5.44
2022-12-08T17:37:15.403Z,5.41
2022-12-08T17:39:45.904Z,5.38
2022-12-08T17:42:15.988Z,5.50
2022-12-08T17:44:46.808Z,5.51
2022-12-08T17:47:16.835Z,5.56
2022-12-08T17:49:49.561Z,5.52
2022-12-08T17:52:19.754Z,5.52
2022-12-08T17:54:49.849Z,5.48
2022-12-08T17:57:19.928Z,5.33
2022-12-08T17:59:50.085Z,5.49
2022-12-08T18:02:21.218Z,5.56
2022-12-08T18:04:53.966Z,5.62
2022-12-08T18:07:24.020Z,5.60
2022-12-08T18:09:54.588Z,5.59
2022-12-08T18:12:24.863Z,5.60
2022-12-08T18:14:55.154Z,5.62
2022-12-08T18:17:25.280Z,5.62
2022-12-08T18:19:58.266Z,5.63
2022-12-08T18:22:28.367Z,5.64
2022-12-08T18:24:58.399Z,5.65
2022-12-08T18:27:28.453Z,5.57
2022-12-08T18:29:58.524Z,5.62
2022-12-08T18:32:31.762Z,5.59
2022-12-08T18:35:05.068Z,5.61
2022-12-08T18:37:35.185Z,5.59
2022-12-08T18:40:06.822Z,5.44
2022-12-08T18:42:42.616Z,5.57
2022-12-08T18:45:16.782Z,5.64
2022-12-08T18:47:52.034Z,5.67
2022-12-08T18:50:24.734Z,5.65
2022-12-08T18:52:54.822Z,5.77
2022-12-08T18:55:24.917Z,5.80
2022-12-08T18:57:55.027Z,5.76
2022-12-08T19:00:25.194Z,5.81
2022-12-08T19:02:58.014Z,5.86
2022-12-08T19:05:32.837Z,5.85
2022-12-08T19:08:06.301Z,5.81
2022-12-08T19:10:40.830Z,5.81
2022-12-08T19:13:11.077Z,5.77
2022-12-08T19:15:41.180Z,5.74
2022-12-08T19:18:11.437Z,5.81
2022-12-08T19:20:46.555Z,5.82
2022-12-08T19:23:17.061Z,5.80
2022-12-08T19:25:47.254Z,5.82
2022-12-08T19:28:17.393Z,5.81
2022-12-08T19:30:47.606Z,5.79
2022-12-08T19:33:17.753Z,5.70
2022-12-08T19:35:52.769Z,5.57
2022-12-08T19:38:22.994Z,5.41
2022-12-08T19:41:05.550Z,5.47
2022-12-08T19:43:48.188Z,5.46
2022-12-08T19:46:18.430Z,5.42
2022-12-08T19:48:48.763Z,5.44
2022-12-08T19:51:26.767Z,5.48
2022-12-08T19:53:56.765Z,5.49
2022-12-08T19:56:26.868Z,5.47
2022-12-08T19:58:57.178Z,5.45
2022-12-08T20:01:30.558Z,5.45
2022-12-08T20:04:00.714Z,5.42
2022-12-08T20:06:33.754Z,5.45
2022-12-08T20:09:05.393Z,5.45
2022-12-08T20:11:35.555Z,5.43
2022-12-08T20:14:05.590Z,5.43
2022-12-08T20:16:36.430Z,5.41
2022-12-08T20:19:07.216Z,5.40
2022-12-08T20:21:41.679Z,5.38
2022-12-08T20:24:11.956Z,5.31
2022-12-08T20:26:42.104Z,5.25
2022-12-08T20:29:12.557Z,5.26
2022-12-08T20:31:42.666Z,5.26
2022-12-08T20:34:16.914Z,5.23
2022-12-08T20:36:49.498Z,5.29
2022-12-08T20:39:21.476Z,5.30
2022-12-08T20:41:52.261Z,5.31
2022-12-08T20:44:22.376Z,5.32
2022-12-08T20:46:52.544Z,5.31
2022-12-08T20:49:22.679Z,5.34
2022-12-08T20:51:55.401Z,5.32
2022-12-08T20:54:25.760Z,5.33
2022-12-08T20:56:56.108Z,5.34
2022-12-08T20:59:26.532Z,5.34
2022-12-08T21:01:57.209Z,5.35
2022-12-08T21:04:27.578Z,5.35
2022-12-08T21:07:00.703Z,5.33
2022-12-08T21:09:31.046Z,5.34
2022-12-08T21:12:01.350Z,5.34
2022-12-08T21:14:31.538Z,5.32
2022-12-08T21:17:01.895Z,5.32
2022-12-08T21:19:32.188Z,5.28
2022-12-08T21:22:05.045Z,5.28
2022-12-08T21:24:35.429Z,5.31
2022-12-08T21:27:05.837Z,5.34
2022-12-08T21:29:35.934Z,5.37
2022-12-08T21:32:06.597Z,5.36
2022-12-08T21:34:37.355Z,5.34
2022-12-08T21:37:10.044Z,5.37
2022-12-08T21:39:40.376Z,5.40
2022-12-08T21:42:23.035Z,5.41
2022-12-08T21:44:53.981Z,5.32
2022-12-08T21:47:24.273Z,5.37
2022-12-08T21:49:54.490Z,5.40
2022-12-08T21:52:29.793Z,5.40
2022-12-08T21:54:59.989Z,5.37
2022-12-08T21:57:30.113Z,5.37
2022-12-08T22:00:01.677Z,5.38
2022-12-08T22:02:32.406Z,5.38
2022-12-08T22:05:02.572Z,5.38
2022-12-08T22:07:35.675Z,5.41
2022-12-08T22:10:07.751Z,5.38
2022-12-08T22:12:39.586Z,5.38
2022-12-08T22:15:11.948Z,5.40
2022-12-08T22:17:44.524Z,5.38
2022-12-08T22:20:17.315Z,5.36
2022-12-08T22:22:49.974Z,5.30
2022-12-08T22:25:20.681Z,5.35
2022-12-08T22:27:50.881Z,5.37
2022-12-08T22:30:21.537Z,5.37
2022-12-08T22:32:51.637Z,5.36
2022-12-08T22:35:21.875Z,5.38
2022-12-08T22:37:57.945Z,5.40
2022-12-08T22:40:27.952Z,5.39
2022-12-08T22:42:58.001Z,5.36
2022-12-08T22:45:28.205Z,5.32
2022-12-08T22:47:58.334Z,5.35
2022-12-08T22:50:28.364Z,5.35
2022-12-08T22:53:01.044Z,5.36
2022-12-08T22:55:31.281Z,5.33
2022-12-08T22:58:01.359Z,5.32
2022-12-08T23:00:31.995Z,5.33
2022-12-08T23:03:02.374Z,5.32
2022-12-08T23:05:35.346Z,5.38
2022-12-08T23:08:10.011Z,5.31
2022-12-08T23:10:42.516Z,5.28
2022-12-08T23:13:13.341Z,5.30
2022-12-08T23:15:44.386Z,5.32
2022-12-08T23:18:17.088Z,5.34
2022-12-08T23:20:48.245Z,5.35
2022-12-08T23:23:21.200Z,5.34
2022-12-08T23:25:51.473Z,5.38
2022-12-08T23:28:21.501Z,5.40
2022-12-08T23:30:51.970Z,5.40
2022-12-08T23:33:22.556Z,5.34
2022-12-08T23:35:59.575Z,5.28
2022-12-08T23:38:32.179Z,5.17
2022-12-08T23:41:03.801Z,5.08
2022-12-08T23:43:34.105Z,4.98
2022-12-08T23:46:04.796Z,4.88
2022-12-08T23:48:35.315Z,4.79
2022-12-08T23:51:05.501Z,4.75
2022-12-08T23:53:38.716Z,4.70
2022-12-08T23:56:12.310Z,4.73
2022-12-08T23:58:43.177Z,4.77
